Time;durP1;ratioP1;P1;durP2;ratioP2;P2;SDS_P1;SDS_P2;PMS_P1;PMS_P2;Temp;Humidity;BMP_temperature;BMP_pressure;BME280_temperature;BME280_humidity;BME280_pressure;Samples;Min_cycle;Max_cycle;Signal;HPM_P1;HPM_P2
2023/05/17 00:02:18;;;;;;;23.25;3.75;;;8.40;99.90;;;;;;4941818;28;20035;-59
2023/05/17 00:04:46;;;;;;;21.20;4.60;;;8.40;99.90;;;;;;4925732;28;20073;-59
2023/05/17 00:07:12;;;;;;;21.70;4.50;;;8.30;99.90;;;;;;4940143;28;20081;-59
2023/05/17 00:09:37;;;;;;;23.38;3.97;;;8.30;99.90;;;;;;4942543;28;20050;-59
2023/05/17 00:12:03;;;;;;;22.40;4.22;;;8.30;99.90;;;;;;4944992;28;20145;-59
2023/05/17 00:14:29;;;;;;;15.98;3.63;;;8.20;99.90;;;;;;4942197;28;20586;-59
2023/05/17 00:16:55;;;;;;;17.83;3.78;;;8.20;99.90;;;;;;4945069;28;20114;-59
2023/05/17 00:19:20;;;;;;;16.90;3.47;;;8.20;99.90;;;;;;4945915;28;20077;-59
2023/05/17 00:21:46;;;;;;;19.48;3.90;;;8.10;99.90;;;;;;4943870;28;20039;-58
2023/05/17 00:24:12;;;;;;;26.95;4.63;;;8.20;99.90;;;;;;4943746;28;20047;-60
2023/05/17 00:26:38;;;;;;;18.52;3.67;;;8.20;99.90;;;;;;4945315;28;20051;-59
2023/05/17 00:29:04;;;;;;;19.92;3.28;;;8.10;99.90;;;;;;4946356;28;20054;-59
2023/05/17 00:31:30;;;;;;;24.17;3.88;;;8.10;99.90;;;;;;4941565;28;20051;-59
2023/05/17 00:33:55;;;;;;;25.70;3.90;;;8.10;99.90;;;;;;4941832;28;20085;-58
2023/05/17 00:36:21;;;;;;;23.02;4.07;;;8.10;99.90;;;;;;4948232;28;20486;-59
2023/05/17 00:38:47;;;;;;;18.85;3.72;;;8.10;99.90;;;;;;4945894;28;20043;-59
2023/05/17 00:41:13;;;;;;;29.08;3.90;;;8.10;99.90;;;;;;4943476;28;20043;-59
2023/05/17 00:43:39;;;;;;;26.70;4.15;;;8.20;99.90;;;;;;4945134;28;20418;-59
2023/05/17 00:46:04;;;;;;;24.17;4.25;;;8.20;99.90;;;;;;4944271;28;20045;-59
2023/05/17 00:48:31;;;;;;;21.40;4.20;;;8.30;99.90;;;;;;4948246;28;20051;-59
2023/05/17 00:50:57;;;;;;;22.90;4.00;;;8.30;99.90;;;;;;4947399;28;20189;-59
2023/05/17 00:53:24;;;;;;;26.98;4.20;;;8.40;99.90;;;;;;4945086;28;20082;-60
2023/05/17 00:55:50;;;;;;;24.50;4.78;;;8.40;99.90;;;;;;4943644;28;20081;-59
2023/05/17 00:58:16;;;;;;;24.23;4.55;;;8.40;99.90;;;;;;4946424;28;20047;-59
2023/05/17 01:00:43;;;;;;;23.02;3.85;;;8.50;99.90;;;;;;4943110;28;20043;-59
2023/05/17 01:03:10;;;;;;;23.02;4.20;;;8.50;99.90;;;;;;4945480;28;20122;-58
2023/05/17 01:05:36;;;;;;;22.70;4.30;;;8.50;99.90;;;;;;4937311;28;20153;-59
2023/05/17 01:08:01;;;;;;;19.15;4.30;;;8.50;99.90;;;;;;4949378;28;20049;-59
2023/05/17 01:10:36;;;;;;;24.83;4.60;;;8.50;99.90;;;;;;4962322;28;20402;-60
2023/05/17 01:13:14;;;;;;;18.13;3.90;;;8.50;99.90;;;;;;4939756;28;20062;-60
2023/05/17 01:15:54;;;;;;;20.50;3.53;;;8.50;99.90;;;;;;4939171;28;20112;-59
2023/05/17 01:18:32;;;;;;;18.83;3.92;;;8.50;99.90;;;;;;4961863;28;20070;-58
2023/05/17 01:21:00;;;;;;;24.27;4.53;;;8.50;99.90;;;;;;4966792;28;20420;-60
2023/05/17 01:23:46;;;;;;;20.05;3.55;;;8.40;99.90;;;;;;4965798;28;20389;-59
2023/05/17 01:26:42;;;;;;;19.70;3.92;;;8.30;99.90;;;;;;4963547;28;20038;-59
2023/05/17 01:29:10;;;;;;;16.35;3.17;;;8.30;99.90;;;;;;4944625;28;20051;-60
2023/05/17 01:31:36;;;;;;;15.90;3.28;;;8.20;99.90;;;;;;4943873;28;20125;-59
2023/05/17 01:34:08;;;;;;;20.33;3.47;;;8.20;99.90;;;;;;4965358;28;20104;-58
2023/05/17 01:36:34;;;;;;;15.75;2.97;;;8.20;99.90;;;;;;4963375;28;20050;-59
2023/05/17 01:39:00;;;;;;;23.77;3.85;;;8.20;99.90;;;;;;4961145;28;20372;-59
2023/05/17 01:41:35;;;;;;;14.32;2.97;;;8.20;99.90;;;;;;4964990;28;20097;-59
2023/05/17 01:44:25;;;;;;;19.38;3.50;;;8.10;99.90;;;;;;4949505;28;20589;-59
2023/05/17 01:47:07;;;;;;;20.95;3.25;;;8.10;99.90;;;;;;4950449;28;20145;-59
2023/05/17 01:49:39;;;;;;;13.18;3.05;;;8.10;99.90;;;;;;4965181;28;20073;-59
2023/05/17 01:52:27;;;;;;;15.68;2.88;;;8.10;99.90;;;;;;4965080;28;20497;-59
2023/05/17 01:55:17;;;;;;;16.15;2.55;;;8.00;99.90;;;;;;4964021;28;20085;-59
2023/05/17 01:57:47;;;;;;;14.15;2.33;;;7.90;99.90;;;;;;4965336;28;20043;-59
2023/05/17 02:00:14;;;;;;;15.70;3.85;;;7.90;99.90;;;;;;4967378;28;20822;-59
2023/05/17 02:02:40;;;;;;;12.00;2.50;;;7.80;99.90;;;;;;4950438;28;20105;-59
2023/05/17 02:05:06;;;;;;;13.05;2.90;;;7.80;99.90;;;;;;4964444;28;20101;-59
2023/05/17 02:07:31;;;;;;;12.65;3.03;;;7.70;99.90;;;;;;4966446;28;20127;-58
2023/05/17 02:09:57;;;;;;;10.85;2.40;;;7.70;99.90;;;;;;4964201;28;20073;-59
2023/05/17 02:12:24;;;;;;;11.57;2.13;;;7.60;99.90;;;;;;4946243;28;20050;-59
2023/05/17 02:14:50;;;;;;;12.30;2.75;;;7.60;99.90;;;;;;4926330;28;20509;-59
2023/05/17 02:17:16;;;;;;;8.48;2.50;;;7.60;99.90;;;;;;4951777;28;20049;-59
2023/05/17 02:19:42;;;;;;;11.30;2.17;;;7.50;99.90;;;;;;4963446;28;20046;-59
2023/05/17 02:22:07;;;;;;;11.40;2.72;;;7.60;99.90;;;;;;4962596;28;20045;-59
2023/05/17 02:24:33;;;;;;;13.10;1.92;;;7.50;99.90;;;;;;4949168;28;20050;-58
2023/05/17 02:26:59;;;;;;;14.00;2.65;;;7.50;99.90;;;;;;4949896;28;20058;-59
2023/05/17 02:29:25;;;;;;;15.05;2.88;;;7.50;99.90;;;;;;4950234;28;20062;-59
2023/05/17 02:31:51;;;;;;;17.52;2.60;;;7.50;99.90;;;;;;4963410;28;20051;-59
2023/05/17 02:34:16;;;;;;;17.08;2.78;;;7.50;99.90;;;;;;4965879;28;20080;-59
2023/05/17 02:36:43;;;;;;;9.75;3.33;;;7.50;99.90;;;;;;4947582;28;20049;-59
2023/05/17 02:39:09;;;;;;;14.82;2.95;;;7.50;99.90;;;;;;4953029;28;20043;-59
2023/05/17 02:41:34;;;;;;;12.18;2.50;;;7.50;99.90;;;;;;4964046;28;20077;-59
2023/05/17 02:44:00;;;;;;;13.50;2.83;;;7.50;99.90;;;;;;4964475;28;20171;-59
2023/05/17 02:46:26;;;;;;;15.13;3.38;;;7.50;99.90;;;;;;4951746;28;20062;-59
2023/05/17 02:48:51;;;;;;;22.92;3.45;;;7.50;99.90;;;;;;4963005;28;20050;-58
2023/05/17 02:51:17;;;;;;;16.77;3.20;;;7.60;99.90;;;;;;4965691;28;20061;-59
2023/05/17 02:53:43;;;;;;;14.00;2.97;;;7.60;99.90;;;;;;4965643;28;22336;-59
2023/05/17 02:56:09;;;;;;;19.60;3.45;;;7.60;99.90;;;;;;4967734;28;20069;-59
2023/05/17 02:58:34;;;;;;;16.27;2.70;;;7.60;99.90;;;;;;4966777;28;20760;-59
2023/05/17 03:01:00;;;;;;;18.13;3.10;;;7.60;99.90;;;;;;4951071;28;20042;-59
2023/05/17 03:03:26;;;;;;;13.43;2.53;;;7.60;99.90;;;;;;4941213;28;20105;-58
2023/05/17 03:05:52;;;;;;;15.70;2.88;;;7.70;99.90;;;;;;4950887;28;22237;-59
2023/05/17 03:08:17;;;;;;;14.77;2.95;;;7.60;99.90;;;;;;4969277;28;20113;-59
2023/05/17 03:10:43;;;;;;;16.58;3.05;;;7.50;99.90;;;;;;4934363;28;20057;-58
2023/05/17 03:13:09;;;;;;;13.13;2.80;;;7.50;99.90;;;;;;4963858;28;20203;-59
2023/05/17 03:15:34;;;;;;;15.80;3.08;;;7.50;99.90;;;;;;4943883;28;20043;-59
2023/05/17 03:18:00;;;;;;;13.07;2.55;;;7.40;99.90;;;;;;4968980;28;21323;-60
2023/05/17 03:20:26;;;;;;;15.18;3.47;;;7.40;99.90;;;;;;4955644;28;20066;-59
2023/05/17 03:22:52;;;;;;;14.68;2.90;;;7.40;99.90;;;;;;4953490;28;20548;-59
2023/05/17 03:25:17;;;;;;;14.95;2.42;;;7.40;99.90;;;;;;4968366;28;20153;-59
2023/05/17 03:27:43;;;;;;;18.45;3.92;;;7.40;99.90;;;;;;4947876;28;20698;-59
2023/05/17 03:30:09;;;;;;;17.17;2.78;;;7.40;99.90;;;;;;4964388;28;20575;-59
2023/05/17 03:32:38;;;;;;;15.93;2.72;;;7.40;99.90;;;;;;4966231;28;20057;-59
2023/05/17 03:35:04;;;;;;;12.95;2.65;;;7.40;99.90;;;;;;4953549;28;20047;-59
2023/05/17 03:37:30;;;;;;;15.15;2.80;;;7.40;99.90;;;;;;4967099;28;20061;-59
2023/05/17 03:39:56;;;;;;;17.40;2.75;;;7.50;99.90;;;;;;4968450;28;20030;-59
2023/05/17 03:42:21;;;;;;;11.27;2.17;;;7.50;99.90;;;;;;4973596;28;20138;-59
2023/05/17 03:44:47;;;;;;;14.88;2.25;;;7.50;99.90;;;;;;4957809;28;20046;-58
2023/05/17 03:47:13;;;;;;;16.42;2.75;;;7.50;99.90;;;;;;4970219;28;20146;-59
2023/05/17 03:49:38;;;;;;;10.40;1.98;;;7.60;99.90;;;;;;4966128;28;20090;-59
2023/05/17 03:52:04;;;;;;;8.48;2.03;;;7.60;99.90;;;;;;4973751;28;20045;-59
2023/05/17 03:54:30;;;;;;;14.25;1.85;;;7.60;99.90;;;;;;4967508;28;20041;-59
2023/05/17 03:56:56;;;;;;;13.23;1.98;;;7.60;99.90;;;;;;4975258;28;20053;-59
2023/05/17 03:59:21;;;;;;;16.63;2.15;;;7.60;99.90;;;;;;4958884;28;20069;-58
2023/05/17 04:01:47;;;;;;;11.88;2.25;;;7.60;99.90;;;;;;4966858;28;20127;-59
2023/05/17 04:04:13;;;;;;;16.55;2.05;;;7.50;99.90;;;;;;4940613;28;20040;-59
2023/05/17 04:06:39;;;;;;;11.63;2.38;;;7.70;99.90;;;;;;4960126;28;20050;-59
2023/05/17 04:09:06;;;;;;;9.50;2.08;;;7.60;99.90;;;;;;4946142;28;20112;-59
2023/05/17 04:11:32;;;;;;;8.98;2.10;;;7.60;99.90;;;;;;4950702;28;20051;-59
2023/05/17 04:13:57;;;;;;;13.60;2.38;;;7.60;99.90;;;;;;4968476;28;20378;-59
2023/05/17 04:16:23;;;;;;;9.38;2.30;;;7.60;99.90;;;;;;4953653;28;20042;-59
2023/05/17 04:18:51;;;;;;;8.38;2.08;;;7.60;99.90;;;;;;4953727;28;20367;-59
2023/05/17 04:21:17;;;;;;;11.73;1.98;;;7.60;99.90;;;;;;4964154;28;20060;-59
2023/05/17 04:23:43;;;;;;;20.45;2.33;;;7.60;99.90;;;;;;4954557;28;20523;-59
2023/05/17 04:26:09;;;;;;;12.25;2.17;;;7.60;99.90;;;;;;4957788;28;20042;-58
2023/05/17 04:28:35;;;;;;;9.10;2.22;;;7.70;99.90;;;;;;4952398;28;20133;-59
2023/05/17 04:31:01;;;;;;;13.52;1.80;;;7.70;99.90;;;;;;4969266;28;20138;-58
2023/05/17 04:33:27;;;;;;;11.45;2.42;;;7.70;99.90;;;;;;4974282;28;20058;-59
2023/05/17 04:35:56;;;;;;;11.48;2.13;;;7.70;99.90;;;;;;4953822;28;20413;-58
2023/05/17 04:38:22;;;;;;;10.95;1.85;;;7.80;99.90;;;;;;4972556;28;20125;-59
2023/05/17 04:40:48;;;;;;;11.45;2.00;;;7.80;99.90;;;;;;4963087;28;20043;-59
2023/05/17 04:43:15;;;;;;;14.80;2.92;;;7.80;99.90;;;;;;4962722;28;20706;-59
2023/05/17 04:45:41;;;;;;;15.88;2.20;;;7.80;99.90;;;;;;4956183;28;20228;-59
2023/05/17 04:48:07;;;;;;;10.20;2.50;;;7.90;99.90;;;;;;4952790;28;20493;-59
2023/05/17 04:50:32;;;;;;;17.33;2.40;;;7.90;99.90;;;;;;4967919;28;21008;-59
2023/05/17 04:52:58;;;;;;;13.65;2.13;;;7.90;99.90;;;;;;4971116;28;20046;-58
2023/05/17 04:55:24;;;;;;;16.83;2.42;;;7.90;99.90;;;;;;4972995;28;20166;-59
2023/05/17 04:57:50;;;;;;;9.80;2.10;;;8.00;99.90;;;;;;4977531;28;20468;-59
2023/05/17 05:00:17;;;;;;;9.18;2.15;;;7.90;99.90;;;;;;4961019;28;20066;-59
2023/05/17 05:02:43;;;;;;;12.00;2.30;;;7.90;99.90;;;;;;4975294;28;20046;-59
2023/05/17 05:05:10;;;;;;;13.00;1.92;;;7.90;99.90;;;;;;4937571;28;20506;-59
2023/05/17 05:07:36;;;;;;;7.75;1.88;;;7.90;99.90;;;;;;4950031;28;20065;-59
2023/05/17 05:10:02;;;;;;;9.13;2.10;;;7.90;99.90;;;;;;4954716;28;20101;-59
2023/05/17 05:12:28;;;;;;;7.65;1.70;;;8.00;99.90;;;;;;4948922;28;20058;-59
2023/05/17 05:14:55;;;;;;;8.32;1.90;;;8.00;99.90;;;;;;4953093;28;20074;-59
2023/05/17 05:17:20;;;;;;;10.80;1.73;;;8.00;99.90;;;;;;4942666;28;20609;-59
2023/05/17 05:19:46;;;;;;;19.52;2.00;;;8.00;99.90;;;;;;4951085;28;20046;-59
2023/05/17 05:22:12;;;;;;;11.05;1.95;;;8.10;99.90;;;;;;4949842;28;20043;-57
2023/05/17 05:24:37;;;;;;;9.50;1.77;;;8.10;99.90;;;;;;4947043;28;20541;-59
2023/05/17 05:27:03;;;;;;;10.80;2.50;;;8.10;99.90;;;;;;4946694;28;20071;-58
2023/05/17 05:29:29;;;;;;;14.48;2.58;;;8.20;99.90;;;;;;4943079;28;20054;-59
2023/05/17 05:31:55;;;;;;;9.10;2.22;;;8.30;99.90;;;;;;4939417;28;20891;-59
2023/05/17 05:34:24;;;;;;;18.15;2.83;;;8.30;99.90;;;;;;4933302;28;20050;-59
2023/05/17 05:36:50;;;;;;;13.45;2.58;;;8.30;99.90;;;;;;4937418;28;20086;-59
2023/05/17 05:39:16;;;;;;;16.27;2.45;;;8.40;99.90;;;;;;4938442;28;20104;-59
2023/05/17 05:41:42;;;;;;;10.20;2.13;;;8.40;99.90;;;;;;4947446;28;20051;-58
2023/05/17 05:44:08;;;;;;;13.02;2.42;;;8.40;99.90;;;;;;4943628;28;20046;-59
2023/05/17 05:46:34;;;;;;;16.30;3.00;;;8.50;99.90;;;;;;4935407;28;20149;-59
2023/05/17 05:49:00;;;;;;;12.85;2.30;;;8.50;99.90;;;;;;4941956;28;20074;-59
2023/05/17 05:51:25;;;;;;;16.52;2.78;;;8.50;99.90;;;;;;4940420;28;20035;-59
2023/05/17 05:53:51;;;;;;;16.88;2.97;;;8.60;99.90;;;;;;4949204;28;20157;-59
2023/05/17 05:56:17;;;;;;;15.38;2.58;;;8.60;99.90;;;;;;4955587;28;21300;-59
2023/05/17 05:58:43;;;;;;;17.40;2.55;;;8.70;99.90;;;;;;4936163;28;20101;-59
2023/05/17 06:01:10;;;;;;;17.25;3.13;;;8.70;99.90;;;;;;4939591;28;20631;-60
2023/05/17 06:03:36;;;;;;;20.52;3.65;;;8.80;99.90;;;;;;4932462;28;20481;-59
2023/05/17 06:06:01;;;;;;;12.52;2.97;;;8.80;99.90;;;;;;4946392;28;20112;-59
2023/05/17 06:08:27;;;;;;;23.80;3.47;;;8.90;99.90;;;;;;4961219;28;20556;-61
2023/05/17 06:10:53;;;;;;;19.38;2.47;;;8.90;99.90;;;;;;4944537;28;21323;-63
2023/05/17 06:13:19;;;;;;;18.92;3.00;;;9.00;99.90;;;;;;4943153;28;20038;-61
2023/05/17 06:15:44;;;;;;;20.15;3.15;;;9.00;99.90;;;;;;4961014;28;20069;-62
2023/05/17 06:18:10;;;;;;;18.83;3.33;;;9.10;99.90;;;;;;4957713;28;20441;-62
2023/05/17 06:20:36;;;;;;;17.80;3.38;;;9.10;99.90;;;;;;4940493;28;20541;-61
2023/05/17 06:23:03;;;;;;;21.40;3.45;;;9.10;99.90;;;;;;4955413;28;20497;-61
2023/05/17 06:25:29;;;;;;;18.58;3.58;;;9.10;99.90;;;;;;4954481;28;20051;-62
2023/05/17 06:27:55;;;;;;;19.05;3.33;;;9.10;99.90;;;;;;4959094;28;20073;-61
2023/05/17 06:30:21;;;;;;;20.40;2.80;;;9.10;99.90;;;;;;4914829;28;20130;-62
2023/05/17 06:32:46;;;;;;;23.55;3.33;;;9.20;99.90;;;;;;4939635;28;20781;-62
2023/05/17 06:35:12;;;;;;;22.67;4.43;;;9.20;99.90;;;;;;4970025;28;20058;-62
2023/05/17 06:37:38;;;;;;;21.30;3.00;;;9.20;99.90;;;;;;4968130;28;20135;-61
2023/05/17 06:40:05;;;;;;;22.05;3.20;;;9.20;99.90;;;;;;4954855;28;20049;-61
2023/05/17 06:42:32;;;;;;;23.00;3.10;;;9.30;99.90;;;;;;4945846;28;20054;-62
2023/05/17 06:44:58;;;;;;;15.88;3.22;;;9.30;99.90;;;;;;4953469;28;20130;-61
2023/05/17 06:47:24;;;;;;;20.35;3.42;;;9.30;99.90;;;;;;4955640;28;20083;-63
2023/05/17 06:49:50;;;;;;;18.00;2.95;;;9.40;99.90;;;;;;4948118;28;20504;-62
2023/05/17 06:52:15;;;;;;;22.83;3.55;;;9.40;99.90;;;;;;4939053;28;20142;-62
2023/05/17 06:54:41;;;;;;;20.27;2.97;;;9.40;99.90;;;;;;4953954;28;20076;-63
2023/05/17 06:57:08;;;;;;;17.45;3.00;;;9.40;99.90;;;;;;4954374;28;20125;-61
2023/05/17 06:59:35;;;;;;;16.33;3.10;;;9.40;99.90;;;;;;4953681;28;20388;-63
2023/05/17 07:02:01;;;;;;;18.38;3.40;;;9.40;99.90;;;;;;4955432;28;20039;-62
2023/05/17 07:04:26;;;;;;;17.35;2.95;;;9.40;99.90;;;;;;4958090;28;20074;-64
2023/05/17 07:06:52;;;;;;;15.57;2.83;;;9.40;99.90;;;;;;4946406;28;20126;-61
2023/05/17 07:09:19;;;;;;;19.27;3.40;;;9.40;99.90;;;;;;4947397;28;20462;-61
2023/05/17 07:11:45;;;;;;;18.85;3.50;;;9.50;99.90;;;;;;4946210;28;20450;-61
2023/05/17 07:14:11;;;;;;;17.02;2.97;;;9.50;99.90;;;;;;4954500;28;20054;-61
2023/05/17 07:16:37;;;;;;;17.92;2.83;;;9.50;99.90;;;;;;4953746;28;20051;-62
2023/05/17 07:19:02;;;;;;;16.02;2.78;;;9.60;99.90;;;;;;4957479;28;20569;-63
2023/05/17 07:21:28;;;;;;;19.23;3.53;;;9.60;99.90;;;;;;4955533;28;20522;-62
2023/05/17 07:23:54;;;;;;;22.55;2.92;;;9.70;99.90;;;;;;4935611;28;20042;-61
2023/05/17 07:26:20;;;;;;;28.20;3.28;;;9.70;99.90;;;;;;4947573;28;20493;-61
2023/05/17 07:28:46;;;;;;;19.40;3.25;;;9.90;99.90;;;;;;4954880;28;20042;-61
2023/05/17 07:31:12;;;;;;;14.30;2.80;;;10.00;99.90;;;;;;4952437;28;20054;-62
2023/05/17 07:33:38;;;;;;;14.65;2.72;;;10.10;99.90;;;;;;4949518;28;21811;-61
2023/05/17 07:36:05;;;;;;;15.50;2.58;;;10.10;99.90;;;;;;4951600;28;20061;-62
2023/05/17 07:38:31;;;;;;;12.75;2.83;;;10.20;99.90;;;;;;4959904;28;20047;-62
2023/05/17 07:40:57;;;;;;;12.20;2.50;;;10.30;99.90;;;;;;4945120;28;20045;-61
2023/05/17 07:43:23;;;;;;;17.23;2.92;;;10.40;99.90;;;;;;4955876;28;20047;-61
2023/05/17 07:45:49;;;;;;;22.55;3.30;;;10.40;99.90;;;;;;4954880;28;20055;-61
2023/05/17 07:48:15;;;;;;;11.57;2.72;;;10.40;99.90;;;;;;4957501;28;20393;-62
2023/05/17 07:50:42;;;;;;;13.50;2.88;;;10.30;99.90;;;;;;4941997;28;22915;-62
2023/05/17 07:53:08;;;;;;;16.65;3.10;;;10.30;99.90;;;;;;4935816;28;20043;-62
2023/05/17 07:55:34;;;;;;;13.25;2.75;;;10.30;99.90;;;;;;4935855;28;20470;-64
2023/05/17 07:58:00;;;;;;;18.58;3.00;;;10.30;99.90;;;;;;4951230;28;20039;-62
2023/05/17 08:00:26;;;;;;;17.27;3.10;;;10.40;99.90;;;;;;4949540;28;20051;-61
2023/05/17 08:02:51;;;;;;;12.30;2.78;;;10.40;99.90;;;;;;4952760;28;20043;-63
2023/05/17 08:05:17;;;;;;;13.65;2.65;;;10.50;99.90;;;;;;4956801;28;20101;-61
2023/05/17 08:07:43;;;;;;;13.32;2.83;;;10.50;99.90;;;;;;4943040;28;20081;-62
2023/05/17 08:10:09;;;;;;;21.73;2.90;;;10.50;99.90;;;;;;4956765;28;20038;-63
2023/05/17 08:12:35;;;;;;;11.90;2.45;;;10.50;99.90;;;;;;4956906;28;20109;-62
2023/05/17 08:15:00;;;;;;;13.98;2.58;;;10.60;99.90;;;;;;4955748;28;20050;-61
2023/05/17 08:17:26;;;;;;;10.02;1.83;;;10.70;99.90;;;;;;4937698;28;20238;-61
2023/05/17 08:19:52;;;;;;;23.80;3.03;;;10.80;99.60;;;;;;4941977;28;20050;-61
2023/05/17 08:22:18;;;;;;;17.48;2.67;;;10.90;99.10;;;;;;4931903;28;20042;-62
2023/05/17 08:24:44;;;;;;;13.40;2.42;;;10.80;98.50;;;;;;4952369;28;20057;-62
2023/05/17 08:27:10;;;;;;;15.77;2.30;;;10.80;98.50;;;;;;4953988;28;20390;-64
2023/05/17 08:29:36;;;;;;;10.60;2.20;;;10.80;98.00;;;;;;4954408;28;20485;-62
2023/05/17 08:32:02;;;;;;;15.85;2.42;;;10.90;97.30;;;;;;4950783;28;20047;-62
2023/05/17 08:34:28;;;;;;;10.23;2.10;;;11.00;97.30;;;;;;4957773;28;20521;-61
2023/05/17 08:36:54;;;;;;;15.32;2.17;;;11.10;97.50;;;;;;4940700;28;20045;-61
2023/05/17 08:39:20;;;;;;;14.40;2.50;;;11.20;96.80;;;;;;4943705;28;20039;-62
2023/05/17 08:41:49;;;;;;;12.82;2.58;;;11.40;96.00;;;;;;4943013;28;20058;-63
2023/05/17 08:44:16;;;;;;;13.00;2.40;;;11.40;96.00;;;;;;4951681;28;20046;-61
2023/05/17 08:46:43;;;;;;;11.95;2.30;;;11.40;95.30;;;;;;4951010;28;20425;-63
2023/05/17 08:49:14;;;;;;;16.58;1.95;;;11.40;95.30;;;;;;4945335;28;20054;-62
2023/05/17 08:51:41;;;;;;;10.63;1.85;;;11.50;95.50;;;;;;4952887;28;20620;-61
2023/05/17 08:54:07;;;;;;;10.73;2.75;;;11.60;95.60;;;;;;4975056;28;20201;-62
2023/05/17 08:56:35;;;;;;;12.02;2.40;;;11.50;95.30;;;;;;4929705;28;20043;-61
2023/05/17 08:59:05;;;;;;;16.25;2.10;;;11.50;95.90;;;;;;4959331;28;21137;-62
2023/05/17 09:01:31;;;;;;;16.40;3.17;;;11.50;95.90;;;;;;4941640;28;20042;-61
2023/05/17 09:03:59;;;;;;;11.95;2.50;;;11.60;96.70;;;;;;4958396;28;20046;-62
2023/05/17 09:06:25;;;;;;;12.18;2.50;;;11.60;96.30;;;;;;4956178;28;20148;-60
2023/05/17 09:08:53;;;;;;;9.88;1.75;;;11.60;96.20;;;;;;4951548;28;20078;-63
2023/05/17 09:11:31;;;;;;;10.73;2.28;;;11.70;96.00;;;;;;4954783;28;20069;-61
2023/05/17 09:14:04;;;;;;;8.30;1.92;;;11.80;96.00;;;;;;4951729;28;20039;-61
2023/05/17 09:16:32;;;;;;;11.82;1.98;;;11.90;96.30;;;;;;4952883;28;20050;-63
2023/05/17 09:18:58;;;;;;;10.23;1.80;;;12.00;95.70;;;;;;4952843;28;20097;-62
2023/05/17 09:21:26;;;;;;;8.95;1.92;;;12.10;95.00;;;;;;4950584;28;20041;-61
2023/05/17 09:23:53;;;;;;;8.30;1.92;;;12.30;95.10;;;;;;4939183;28;20046;-62
2023/05/17 09:26:19;;;;;;;11.98;2.30;;;12.40;94.80;;;;;;4951615;28;20513;-64
2023/05/17 09:28:46;;;;;;;11.98;1.75;;;12.40;93.80;;;;;;4938522;28;20117;-61
2023/05/17 09:31:15;;;;;;;9.98;2.00;;;12.30;93.20;;;;;;4946449;28;20383;-61
2023/05/17 09:33:49;;;;;;;13.07;2.28;;;12.30;92.80;;;;;;4952188;28;20520;-63
2023/05/17 09:36:22;;;;;;;6.85;1.67;;;12.40;93.60;;;;;;4952843;28;20129;-63
2023/05/17 09:38:53;;;;;;;7.15;1.70;;;12.40;93.90;;;;;;4954388;28;20042;-63
2023/05/17 09:41:20;;;;;;;10.60;1.90;;;12.40;92.70;;;;;;4953327;28;20042;-64
2023/05/17 09:43:46;;;;;;;10.63;2.00;;;12.30;92.90;;;;;;4958969;28;20055;-62
2023/05/17 09:46:14;;;;;;;13.02;2.00;;;12.20;92.30;;;;;;4956030;28;20512;-63
2023/05/17 09:48:39;;;;;;;12.50;1.70;;;12.30;91.50;;;;;;4955050;28;20047;-63
2023/05/17 09:51:06;;;;;;;10.23;1.80;;;12.30;91.00;;;;;;4959110;28;20085;-62
2023/05/17 09:53:38;;;;;;;9.73;2.38;;;12.30;91.30;;;;;;4933577;28;20071;-61
2023/05/17 09:56:05;;;;;;;8.15;1.70;;;12.30;91.70;;;;;;4951217;28;20047;-63
2023/05/17 09:58:32;;;;;;;8.95;2.00;;;12.40;91.50;;;;;;4931671;28;20074;-63
2023/05/17 10:01:00;;;;;;;10.65;2.20;;;12.40;90.80;;;;;;4931689;28;20039;-61
2023/05/17 10:03:31;;;;;;;8.23;1.50;;;12.40;90.70;;;;;;4935054;28;20057;-61
2023/05/17 10:05:59;;;;;;;14.25;1.80;;;12.30;90.00;;;;;;4944489;28;20194;-60
2023/05/17 10:08:27;;;;;;;7.05;1.67;;;12.40;89.60;;;;;;4953840;28;20116;-62
2023/05/17 10:10:57;;;;;;;8.45;1.85;;;12.50;90.30;;;;;;4941184;28;20154;-62
2023/05/17 10:13:29;;;;;;;8.57;1.65;;;12.60;90.40;;;;;;4951052;28;20046;-61
2023/05/17 10:15:55;;;;;;;11.52;2.55;;;12.60;88.30;;;;;;4949401;28;20047;-61
2023/05/17 10:18:22;;;;;;;12.77;2.08;;;12.50;88.10;;;;;;4911572;28;20462;-61
2023/05/17 10:20:48;;;;;;;10.48;2.10;;;12.40;87.80;;;;;;4935994;28;20042;-62
2023/05/17 10:23:15;;;;;;;11.10;2.00;;;12.40;89.00;;;;;;4950916;28;20509;-63
2023/05/17 10:25:42;;;;;;;9.52;1.90;;;12.50;89.00;;;;;;4945612;28;20410;-61
2023/05/17 10:28:09;;;;;;;9.10;1.75;;;12.70;88.50;;;;;;4935284;28;20046;-61
2023/05/17 10:30:34;;;;;;;10.68;2.28;;;12.90;87.70;;;;;;4932975;28;20085;-63
2023/05/17 10:33:01;;;;;;;17.52;2.63;;;13.10;86.70;;;;;;4947097;28;20121;-63
2023/05/17 10:35:28;;;;;;;10.50;2.05;;;13.10;84.90;;;;;;4948353;28;20505;-61
2023/05/17 10:37:54;;;;;;;11.65;2.00;;;13.00;85.20;;;;;;4951481;28;20164;-62
2023/05/17 10:40:21;;;;;;;15.15;2.30;;;12.90;86.70;;;;;;4945628;28;20265;-63
2023/05/17 10:42:51;;;;;;;10.55;2.13;;;12.80;87.10;;;;;;4926808;28;20038;-61
2023/05/17 10:45:21;;;;;;;13.75;2.42;;;12.70;85.80;;;;;;4948445;28;20046;-61
2023/05/17 10:47:53;;;;;;;9.18;2.10;;;12.60;86.70;;;;;;4946515;28;20050;-62
2023/05/17 10:50:23;;;;;;;9.93;2.10;;;12.80;88.50;;;;;;4960078;28;20050;-61
2023/05/17 10:52:50;;;;;;;15.60;2.15;;;13.10;89.10;;;;;;4952101;28;20059;-62
2023/05/17 10:55:24;;;;;;;8.88;2.22;;;13.50;88.20;;;;;;4953487;28;20086;-63
2023/05/17 10:58:16;;;;;;;12.32;2.40;;;13.70;86.20;;;;;;4952647;28;20078;-61
2023/05/17 11:00:47;;;;;;;12.47;2.03;;;13.80;85.30;;;;;;4948202;28;20054;-62
2023/05/17 11:03:19;;;;;;;8.80;2.20;;;13.60;83.40;;;;;;4954954;28;20149;-61
2023/05/17 11:06:08;;;;;;;11.20;2.40;;;13.40;83.90;;;;;;4950723;28;20055;-64
2023/05/17 11:08:34;;;;;;;10.98;2.33;;;13.40;83.20;;;;;;4940032;28;20050;-61
2023/05/17 11:11:10;;;;;;;18.35;2.88;;;13.60;83.80;;;;;;4944745;28;20046;-61
2023/05/17 11:14:10;;;;;;;11.32;2.05;;;13.90;82.90;;;;;;4939457;28;20414;-61
2023/05/17 11:16:37;;;;;;;11.15;2.20;;;14.10;81.70;;;;;;4938382;28;20476;-62
2023/05/17 11:19:07;;;;;;;10.50;2.20;;;14.10;80.60;;;;;;4940282;28;20081;-63
2023/05/17 11:21:34;;;;;;;7.68;2.00;;;13.90;77.80;;;;;;4948285;28;20059;-61
2023/05/17 11:24:05;;;;;;;15.80;2.35;;;14.00;80.40;;;;;;4940401;28;20990;-61
2023/05/17 11:26:37;;;;;;;15.70;3.00;;;14.20;79.50;;;;;;4946661;28;20145;-63
2023/05/17 11:29:09;;;;;;;9.23;1.77;;;14.30;78.90;;;;;;4938898;28;20046;-62
2023/05/17 11:31:36;;;;;;;11.48;2.30;;;14.40;78.10;;;;;;4947341;28;20058;-64
2023/05/17 11:34:02;;;;;;;10.15;2.20;;;14.50;77.70;;;;;;4950569;28;20083;-65
2023/05/17 11:36:28;;;;;;;13.68;2.20;;;14.50;75.80;;;;;;4934426;28;20039;-64
2023/05/17 11:39:12;;;;;;;15.00;2.65;;;14.50;74.20;;;;;;4928566;28;20047;-62
2023/05/17 11:41:46;;;;;;;11.15;2.25;;;14.60;75.40;;;;;;4946906;28;20043;-64
2023/05/17 11:44:12;;;;;;;10.32;2.17;;;14.50;74.60;;;;;;4952909;28;20057;-63
2023/05/17 11:46:40;;;;;;;9.90;2.00;;;14.30;75.00;;;;;;4949186;28;20062;-63
2023/05/17 11:49:06;;;;;;;11.05;2.13;;;14.40;76.20;;;;;;4953979;28;20716;-63
2023/05/17 11:51:32;;;;;;;9.73;2.47;;;14.60;76.80;;;;;;4941578;28;20228;-64
2023/05/17 11:54:02;;;;;;;7.80;2.10;;;14.60;75.10;;;;;;4930526;28;20079;-63
2023/05/17 11:56:34;;;;;;;10.75;2.22;;;14.70;74.90;;;;;;4931204;28;20039;-63
2023/05/17 11:59:00;;;;;;;9.00;2.33;;;14.70;72.50;;;;;;4948254;28;20043;-63
2023/05/17 12:01:26;;;;;;;15.88;2.10;;;14.60;72.40;;;;;;4931991;28;20543;-64
2023/05/17 12:03:58;;;;;;;12.00;2.50;;;14.70;73.40;;;;;;4942796;28;20122;-64
2023/05/17 12:06:25;;;;;;;14.48;2.05;;;14.90;74.80;;;;;;4920963;28;20092;-64
2023/05/17 12:08:50;;;;;;;14.27;2.30;;;14.90;73.10;;;;;;4947491;28;20051;-63
2023/05/17 12:11:17;;;;;;;9.20;2.28;;;14.70;72.90;;;;;;4949532;28;21069;-65
2023/05/17 12:13:45;;;;;;;11.00;1.95;;;14.60;73.50;;;;;;4943687;28;20078;-63
2023/05/17 12:16:19;;;;;;;8.73;2.30;;;14.60;73.80;;;;;;4929095;28;20157;-63
2023/05/17 12:18:50;;;;;;;9.57;2.13;;;14.90;73.60;;;;;;4928041;28;20046;-63
2023/05/17 12:21:17;;;;;;;9.43;2.20;;;15.20;71.70;;;;;;4929677;28;20038;-63
2023/05/17 12:23:45;;;;;;;9.15;2.05;;;15.50;72.30;;;;;;4932583;28;20149;-63
2023/05/17 12:26:14;;;;;;;8.27;2.25;;;15.60;71.20;;;;;;4939497;28;20360;-65
2023/05/17 12:28:44;;;;;;;8.38;2.17;;;15.80;71.60;;;;;;4960956;28;20079;-63
2023/05/17 12:31:19;;;;;;;8.35;2.08;;;16.00;70.40;;;;;;4952545;28;20101;-62
2023/05/17 12:33:46;;;;;;;10.25;2.30;;;15.90;68.40;;;;;;4953126;28;20611;-62
2023/05/17 12:36:13;;;;;;;13.35;2.20;;;15.70;69.60;;;;;;4944851;28;20050;-65
2023/05/17 12:38:41;;;;;;;9.52;2.20;;;15.50;68.50;;;;;;4949347;28;21117;-67
2023/05/17 12:41:09;;;;;;;8.40;2.33;;;15.40;70.10;;;;;;4950863;28;21511;-67
2023/05/17 12:43:37;;;;;;;9.82;2.10;;;15.50;70.50;;;;;;4952931;28;20096;-67
2023/05/17 12:46:19;;;;;;;12.75;2.28;;;15.30;69.70;;;;;;4949443;28;20053;-67
2023/05/17 12:48:46;;;;;;;10.02;2.05;;;15.20;69.90;;;;;;4931810;28;20042;-67